createdAt,value
2022-12-31T00:02:25.000Z,31.51
2022-12-31T00:07:25.000Z,32.25
2022-12-31T00:12:24.000Z,32.36
2022-12-31T00:17:25.000Z,31.77
2022-12-31T00:22:24.000Z,31.87
2022-12-31T00:27:24.000Z,31.45
2022-12-31T00:32:24.000Z,31.43
2022-12-31T00:42:25.000Z,30.79
2022-12-31T00:47:24.000Z,30.22
2022-12-31T00:52:25.000Z,30.03
2022-12-31T00:57:24.000Z,30.33
2022-12-31T01:02:25.000Z,30.39
2022-12-31T01:07:24.000Z,28.66
2022-12-31T01:12:25.000Z,27.67
2022-12-31T01:17:24.000Z,27.7
2022-12-31T01:22:24.000Z,28.39
2022-12-31T01:27:24.000Z,25.7
2022-12-31T01:32:25.000Z,24.83
2022-12-31T01:37:24.000Z,23.88
2022-12-31T01:42:25.000Z,24.25
2022-12-31T01:47:24.000Z,23.57
2022-12-31T01:52:25.000Z,23.73
2022-12-31T01:57:24.000Z,23.25
2022-12-31T02:02:24.000Z,22.06
2022-12-31T02:07:24.000Z,21.58
2022-12-31T02:12:25.000Z,20.01
2022-12-31T02:17:24.000Z,19.84
2022-12-31T02:22:24.000Z,19.59
2022-12-31T02:27:24.000Z,19.32
2022-12-31T02:32:24.000Z,19.69
2022-12-31T02:37:24.000Z,18.43
2022-12-31T02:42:24.000Z,17.58
2022-12-31T02:47:24.000Z,16.53
2022-12-31T02:52:24.000Z,16.49
2022-12-31T02:57:24.000Z,16.83
2022-12-31T03:02:25.000Z,16.59
2022-12-31T03:07:25.000Z,16.31
2022-12-31T03:12:24.000Z,17.23
2022-12-31T03:17:25.000Z,18.04
2022-12-31T03:22:24.000Z,18.14
2022-12-31T03:27:24.000Z,18.94
2022-12-31T03:32:25.000Z,18.13
2022-12-31T03:37:24.000Z,17.57
2022-12-31T03:42:24.000Z,17.87
2022-12-31T03:52:24.000Z,16.9
2022-12-31T03:57:24.000Z,16.4
2022-12-31T04:02:24.000Z,16.72
2022-12-31T04:07:24.000Z,15.64
2022-12-31T04:12:24.000Z,16.24
2022-12-31T04:17:24.000Z,17.01
2022-12-31T04:22:24.000Z,16.15
2022-12-31T04:27:24.000Z,15.85
2022-12-31T04:32:24.000Z,15.89
2022-12-31T04:37:25.000Z,16
2022-12-31T04:42:24.000Z,16.32
2022-12-31T04:47:24.000Z,17.36
2022-12-31T04:52:24.000Z,16.94
2022-12-31T04:57:24.000Z,15.5
2022-12-31T05:07:24.000Z,15.17
2022-12-31T05:12:24.000Z,15.79
2022-12-31T05:17:24.000Z,15.29
2022-12-31T05:22:24.000Z,14.91
2022-12-31T05:27:24.000Z,15.6
2022-12-31T05:32:24.000Z,15.41
2022-12-31T05:37:25.000Z,15.24
2022-12-31T05:42:24.000Z,15.19
2022-12-31T05:47:24.000Z,15.17
2022-12-31T05:52:25.000Z,14.82
2022-12-31T05:57:24.000Z,15.18
2022-12-31T06:02:24.000Z,15.73
2022-12-31T06:12:24.000Z,17.88
2022-12-31T06:17:24.000Z,16.17
2022-12-31T06:22:24.000Z,17.37
2022-12-31T06:27:25.000Z,18.07
2022-12-31T06:32:24.000Z,20.51
2022-12-31T06:37:25.000Z,19.63
2022-12-31T06:42:24.000Z,18.84
2022-12-31T06:47:25.000Z,18.31
2022-12-31T06:52:24.000Z,17.96
2022-12-31T06:57:24.000Z,18.3
2022-12-31T07:02:24.000Z,18.11
2022-12-31T07:07:24.000Z,17.79
2022-12-31T07:12:24.000Z,17.31
2022-12-31T07:17:24.000Z,17.29
2022-12-31T07:22:24.000Z,15.73
2022-12-31T07:27:25.000Z,16.32
2022-12-31T07:32:24.000Z,15.98
2022-12-31T07:37:25.000Z,15.59
2022-12-31T07:42:24.000Z,15.53
2022-12-31T07:47:25.000Z,15.28
2022-12-31T07:52:24.000Z,14.33
2022-12-31T07:57:24.000Z,13.78
2022-12-31T08:02:25.000Z,13.48
2022-12-31T08:07:24.000Z,13.49
2022-12-31T08:12:25.000Z,13.15
2022-12-31T08:17:24.000Z,12.88
2022-12-31T08:22:24.000Z,13.39
2022-12-31T08:27:25.000Z,12.59
2022-12-31T08:32:24.000Z,12.53
2022-12-31T08:37:25.000Z,11.55
2022-12-31T08:42:24.000Z,15.16
2022-12-31T08:47:25.000Z,12.33
2022-12-31T08:52:24.000Z,11.27
2022-12-31T08:57:25.000Z,11.09
2022-12-31T09:02:24.000Z,11.37
2022-12-31T09:07:25.000Z,10.8
2022-12-31T09:12:24.000Z,10.52
2022-12-31T09:17:24.000Z,10.97
2022-12-31T09:22:24.000Z,11.75
2022-12-31T09:27:24.000Z,11.21
2022-12-31T09:32:25.000Z,11.48
2022-12-31T09:37:24.000Z,12.11
2022-12-31T09:42:24.000Z,11.35
2022-12-31T09:47:24.000Z,11.3
2022-12-31T09:52:25.000Z,11.49
2022-12-31T09:57:24.000Z,10.74
2022-12-31T10:02:24.000Z,10.4
2022-12-31T10:07:25.000Z,11.23
2022-12-31T10:12:24.000Z,12.23
2022-12-31T10:17:24.000Z,12.67
2022-12-31T10:22:24.000Z,13.82
2022-12-31T10:27:24.000Z,13.92
2022-12-31T10:32:24.000Z,13.23
2022-12-31T10:37:24.000Z,12.92
2022-12-31T10:42:25.000Z,13.16
2022-12-31T10:47:25.000Z,12.55
2022-12-31T10:52:24.000Z,12.27
2022-12-31T10:57:25.000Z,12.22
2022-12-31T11:02:24.000Z,11.77
2022-12-31T11:07:25.000Z,12.74
2022-12-31T11:12:24.000Z,13.27
2022-12-31T11:17:24.000Z,12.82
2022-12-31T11:22:24.000Z,12.87
2022-12-31T11:27:25.000Z,13.58
2022-12-31T11:32:24.000Z,13.32
2022-12-31T11:37:25.000Z,15.12
2022-12-31T11:42:24.000Z,14.08
2022-12-31T11:47:25.000Z,13.72
2022-12-31T11:52:24.000Z,14.68
2022-12-31T11:57:24.000Z,13.74
2022-12-31T12:02:24.000Z,13.94
2022-12-31T12:07:25.000Z,14.45
2022-12-31T12:12:24.000Z,14.16
2022-12-31T12:17:24.000Z,14.17
2022-12-31T12:22:24.000Z,13.84
2022-12-31T12:32:24.000Z,13.75
2022-12-31T12:37:25.000Z,14.45
2022-12-31T12:42:24.000Z,14.26
2022-12-31T12:47:24.000Z,15.29
2022-12-31T12:52:24.000Z,14.3
2022-12-31T12:57:24.000Z,15.13
2022-12-31T13:02:24.000Z,14
2022-12-31T13:07:25.000Z,14.25
2022-12-31T13:12:24.000Z,13.34
2022-12-31T13:17:24.000Z,13.25
2022-12-31T13:22:25.000Z,12.35
2022-12-31T13:27:24.000Z,12.52
2022-12-31T13:32:24.000Z,11.96
2022-12-31T13:37:25.000Z,11.77
2022-12-31T13:47:25.000Z,11.23
2022-12-31T13:52:24.000Z,11.15
2022-12-31T13:57:25.000Z,12.19
2022-12-31T14:02:24.000Z,12.84
2022-12-31T14:07:24.000Z,13.82
2022-12-31T14:12:25.000Z,15.06
2022-12-31T14:17:25.000Z,15.67
2022-12-31T14:27:25.000Z,17.11
2022-12-31T14:32:24.000Z,16.57
2022-12-31T14:37:24.000Z,16.42
2022-12-31T14:42:24.000Z,17.05
2022-12-31T14:47:24.000Z,17.12
2022-12-31T14:52:24.000Z,17.46
2022-12-31T14:57:24.000Z,17.39
2022-12-31T15:02:24.000Z,18.83
2022-12-31T15:07:25.000Z,19.98
2022-12-31T15:12:24.000Z,21.7
2022-12-31T15:17:25.000Z,21.01
2022-12-31T15:22:24.000Z,21.43
2022-12-31T15:27:25.000Z,23.01
2022-12-31T15:32:24.000Z,23.89
2022-12-31T15:37:24.000Z,25.77
2022-12-31T15:42:24.000Z,24.59
2022-12-31T15:47:25.000Z,22.71
2022-12-31T15:52:24.000Z,23.21
2022-12-31T15:57:24.000Z,23.26
2022-12-31T16:02:25.000Z,21.46
2022-12-31T16:07:24.000Z,18.13
2022-12-31T16:12:24.000Z,14.49
2022-12-31T16:17:24.000Z,13.37
2022-12-31T16:22:25.000Z,15.02
2022-12-31T16:27:24.000Z,15.46
2022-12-31T16:32:24.000Z,16.12
2022-12-31T16:37:25.000Z,22.74
2022-12-31T16:42:24.000Z,24.93
2022-12-31T16:47:24.000Z,19.02
2022-12-31T16:52:24.000Z,17.49
2022-12-31T16:57:25.000Z,17.27
2022-12-31T17:02:24.000Z,17.17
2022-12-31T17:07:24.000Z,17.09
2022-12-31T17:12:24.000Z,16.98
2022-12-31T17:17:24.000Z,17.3
2022-12-31T17:22:25.000Z,17.61
2022-12-31T17:27:24.000Z,17.77
2022-12-31T17:32:24.000Z,17.59
2022-12-31T17:37:24.000Z,17.1
2022-12-31T17:42:25.000Z,17.5
2022-12-31T17:47:24.000Z,18.58
2022-12-31T17:52:25.000Z,18.1
2022-12-31T17:57:24.000Z,17.44
2022-12-31T18:02:25.000Z,17.63
2022-12-31T18:07:24.000Z,16.18
2022-12-31T18:12:25.000Z,15.1
2022-12-31T18:17:25.000Z,14.21
2022-12-31T18:22:24.000Z,14.51
2022-12-31T18:27:24.000Z,14.28
2022-12-31T18:32:24.000Z,13.2
2022-12-31T18:37:25.000Z,12.74
2022-12-31T18:42:24.000Z,12.13
2022-12-31T18:47:25.000Z,13.36
2022-12-31T18:52:25.000Z,14
2022-12-31T18:57:25.000Z,13.35
2022-12-31T19:07:25.000Z,17.62
2022-12-31T19:12:24.000Z,19.52
2022-12-31T19:17:24.000Z,16.86
2022-12-31T19:22:25.000Z,16.4
2022-12-31T19:27:24.000Z,18.98
2022-12-31T19:32:25.000Z,21.28
2022-12-31T19:37:24.000Z,12.9
2022-12-31T19:42:24.000Z,12.86
2022-12-31T19:47:24.000Z,12.22
2022-12-31T19:52:24.000Z,13.76
2022-12-31T19:57:25.000Z,12.35
2022-12-31T20:02:25.000Z,10.92
2022-12-31T20:07:24.000Z,10.92
2022-12-31T20:12:24.000Z,10.8
2022-12-31T20:17:24.000Z,10.58
2022-12-31T20:22:25.000Z,11.13
2022-12-31T20:27:25.000Z,11.83
2022-12-31T20:32:24.000Z,11.57
2022-12-31T20:37:24.000Z,11.22
2022-12-31T20:42:24.000Z,11.43
2022-12-31T20:47:24.000Z,11.81
2022-12-31T20:52:24.000Z,11.56
2022-12-31T20:57:25.000Z,12.07
2022-12-31T21:02:24.000Z,12.11
2022-12-31T21:07:25.000Z,12.03
2022-12-31T21:12:25.000Z,12.35
2022-12-31T21:17:24.000Z,13.33
2022-12-31T21:22:25.000Z,36.62
2022-12-31T21:27:25.000Z,24
2022-12-31T21:32:24.000Z,16.12
2022-12-31T21:37:25.000Z,13.79
2022-12-31T21:42:24.000Z,14.71
2022-12-31T21:47:25.000Z,18.41
2022-12-31T21:52:24.000Z,21.95
2022-12-31T21:57:24.000Z,23.73
2022-12-31T22:02:25.000Z,29.44
2022-12-31T22:12:25.000Z,84.63
2022-12-31T22:17:24.000Z,60.62
2022-12-31T22:22:25.000Z,46.42
2022-12-31T22:27:24.000Z,27.85
2022-12-31T22:32:25.000Z,22.12
2022-12-31T22:37:24.000Z,19.62
2022-12-31T22:42:24.000Z,19.05
2022-12-31T22:47:25.000Z,20.18
2022-12-31T22:52:24.000Z,20.42
2022-12-31T22:57:25.000Z,21.71
2022-12-31T23:02:24.000Z,18.74
2022-12-31T23:07:25.000Z,17.89
2022-12-31T23:12:24.000Z,17.73
2022-12-31T23:17:25.000Z,17.43
2022-12-31T23:22:24.000Z,17.16
2022-12-31T23:27:24.000Z,16.92
2022-12-31T23:32:25.000Z,19.21
2022-12-31T23:42:24.000Z,16.48
2022-12-31T23:47:25.000Z,16.26
2022-12-31T23:57:24.000Z,16.56
